createdAt,value
2019-03-17T00:01:40.486Z,101026.24
2019-03-17T00:04:10.281Z,101028.26
2019-03-17T00:06:40.196Z,101027.92
2019-03-17T00:09:10.152Z,101026.24
2019-03-17T00:11:40.035Z,101032.67
2019-03-17T00:14:09.948Z,101032.88
2019-03-17T00:16:39.917Z,101032.69
2019-03-17T00:19:09.790Z,101030.15
2019-03-17T00:21:39.705Z,101037.76
2019-03-17T00:24:09.698Z,101034.89
2019-03-17T00:26:39.641Z,101033.77
2019-03-17T00:29:09.447Z,101028.01
2019-03-17T00:31:39.430Z,101029.77
2019-03-17T00:34:09.289Z,101023.31
2019-03-17T00:36:39.200Z,101022.92
2019-03-17T00:39:09.165Z,101031.06
2019-03-17T00:41:39.008Z,101028.45
2019-03-17T00:44:08.727Z,101031.44
2019-03-17T00:46:38.342Z,101033.66
2019-03-17T00:49:08.315Z,101031.82
2019-03-17T00:51:38.084Z,101029.97
2019-03-17T00:54:08.105Z,101028.12
2019-03-17T00:56:37.934Z,101028.31
2019-03-17T00:59:07.841Z,101034.23
2019-03-17T01:01:37.817Z,101030.23
2019-03-17T01:04:07.787Z,101030.54
2019-03-17T01:06:37.584Z,101035.92
2019-03-17T01:09:08.137Z,101028.12
2019-03-17T01:11:37.907Z,101031.05
2019-03-17T01:14:07.745Z,101025.88
2019-03-17T01:16:37.713Z,101027.92
2019-03-17T01:19:07.686Z,101037.16
2019-03-17T01:21:37.596Z,101041.87
2019-03-17T01:24:10.279Z,101039.34
2019-03-17T01:26:39.056Z,101043.88
2019-03-17T01:29:08.884Z,101049.08
2019-03-17T01:31:38.848Z,101044.42
2019-03-17T01:34:08.500Z,101042.92
2019-03-17T01:36:38.402Z,101048.28
2019-03-17T01:39:08.652Z,101054.52
2019-03-17T01:41:38.625Z,101058.34
2019-03-17T01:44:08.494Z,101061.60
2019-03-17T01:46:38.304Z,101064.89
2019-03-17T01:49:08.261Z,101064.63
2019-03-17T01:51:38.143Z,101069.16
2019-03-17T01:54:07.831Z,101071.78
2019-03-17T01:56:37.586Z,101079.91
2019-03-17T01:59:07.344Z,101080.87
2019-03-17T02:01:37.069Z,101081.61
2019-03-17T02:04:07.053Z,101078.48
2019-03-17T02:06:36.819Z,101083.11
2019-03-17T02:09:08.020Z,101082.13
2019-03-17T02:11:37.783Z,101084.08
2019-03-17T02:14:07.469Z,101087.34
2019-03-17T02:16:37.181Z,101080.03
2019-03-17T02:19:07.034Z,101070.94
2019-03-17T02:21:36.910Z,101073.91
2019-03-17T02:24:06.733Z,101078.19
2019-03-17T02:26:37.711Z,101075.58
2019-03-17T02:29:07.548Z,101070.59
2019-03-17T02:31:37.421Z,101066.50
2019-03-17T02:34:07.381Z,101074.88
2019-03-17T02:36:37.254Z,101079.77
2019-03-17T02:39:07.562Z,101084.92
2019-03-17T02:41:37.214Z,101082.53
2019-03-17T02:44:07.118Z,101087.54
2019-03-17T02:46:36.926Z,101085.97
2019-03-17T02:49:06.894Z,101096.48
2019-03-17T02:51:36.740Z,101094.33
2019-03-17T02:54:06.541Z,101095.45
2019-03-17T02:56:37.545Z,101113.64
2019-03-17T02:59:07.324Z,101110.41
2019-03-17T03:01:37.253Z,101114.91
2019-03-17T03:04:07.037Z,101126.25
2019-03-17T03:06:36.741Z,101118.64
2019-03-17T03:09:07.866Z,101126.62
2019-03-17T03:11:37.932Z,101124.04
2019-03-17T03:14:07.725Z,101124.04
2019-03-17T03:16:37.360Z,101133.66
2019-03-17T03:19:07.150Z,101133.09
2019-03-17T03:21:36.923Z,101126.55
2019-03-17T03:24:06.810Z,101123.57
2019-03-17T03:26:36.587Z,101122.59
2019-03-17T03:29:06.802Z,101117.23
2019-03-17T03:31:36.659Z,101119.28
2019-03-17T03:34:06.365Z,101119.80
2019-03-17T03:36:36.091Z,101119.31
2019-03-17T03:39:07.431Z,101125.48
2019-03-17T03:41:37.316Z,101120.83
2019-03-17T03:44:07.049Z,101133.73
2019-03-17T03:46:36.867Z,101134.36
2019-03-17T03:49:06.715Z,101133.87
2019-03-17T03:51:36.377Z,101135.61
2019-03-17T03:54:06.089Z,101138.98
2019-03-17T03:56:35.752Z,101129.19
2019-03-17T03:59:06.975Z,101134.05
2019-03-17T04:01:36.776Z,101136.58
2019-03-17T04:04:06.631Z,101152.52
2019-03-17T04:06:36.513Z,101161.47
2019-03-17T04:09:08.379Z,101170.91
2019-03-17T04:11:38.129Z,101167.48
2019-03-17T04:14:07.999Z,101162.91
2019-03-17T04:16:37.795Z,101152.31
2019-03-17T04:19:07.527Z,101152.70
2019-03-17T04:21:37.336Z,101155.04
2019-03-17T04:24:07.146Z,101155.04
2019-03-17T04:26:37.332Z,101158.02
2019-03-17T04:29:07.198Z,101165.98
2019-03-17T04:31:37.008Z,101173.92
2019-03-17T04:34:06.755Z,101176.56
2019-03-17T04:36:40.369Z,101176.17
2019-03-17T04:39:08.808Z,101181.00
2019-03-17T04:41:38.876Z,101184.23
2019-03-17T04:44:20.057Z,101187.72
2019-03-17T04:46:40.171Z,101183.98
2019-03-17T04:49:11.132Z,101192.25
2019-03-17T04:51:40.938Z,101194.44
2019-03-17T04:54:10.967Z,101187.98
2019-03-17T04:56:40.818Z,101199.56
2019-03-17T04:59:10.575Z,101202.73
2019-03-17T05:01:41.730Z,101213.14
2019-03-17T05:04:11.657Z,101204.14
2019-03-17T05:06:52.112Z,101199.97
2019-03-17T05:09:12.801Z,101193.27
2019-03-17T05:11:42.780Z,101184.93
2019-03-17T05:14:12.533Z,101172.56
2019-03-17T05:16:42.371Z,101172.52
2019-03-17T05:19:12.203Z,101185.80
2019-03-17T05:21:42.077Z,101193.16
2019-03-17T05:24:11.708Z,101200.94
2019-03-17T05:26:43.275Z,101199.47
2019-03-17T05:29:13.283Z,101198.05
2019-03-17T05:31:43.168Z,101203.84
2019-03-17T05:34:13.035Z,101211.17
2019-03-17T05:36:42.939Z,101212.84
2019-03-17T05:39:13.896Z,101218.78
2019-03-17T05:41:43.778Z,101213.93
2019-03-17T05:44:13.810Z,101211.11
2019-03-17T05:46:44.848Z,101204.50
2019-03-17T05:49:14.652Z,101198.37
2019-03-17T05:51:44.481Z,101201.34
2019-03-17T05:54:14.444Z,101202.29
2019-03-17T05:56:44.288Z,101209.79
2019-03-17T05:59:13.905Z,101211.78
2019-03-17T06:01:43.854Z,101217.02
2019-03-17T06:04:13.659Z,101220.88
2019-03-17T06:06:43.576Z,101224.27
2019-03-17T06:09:13.644Z,101226.80
2019-03-17T06:11:43.408Z,101220.28
2019-03-17T06:14:13.320Z,101218.39
2019-03-17T06:16:43.285Z,101222.05
2019-03-17T06:19:13.257Z,101222.78
2019-03-17T06:21:43.073Z,101226.25
2019-03-17T06:24:13.214Z,101227.59
2019-03-17T06:26:43.904Z,101226.47
2019-03-17T06:29:13.625Z,101225.14
2019-03-17T06:31:43.474Z,101226.12
2019-03-17T06:34:13.278Z,101236.83
2019-03-17T06:36:43.294Z,101243.37
2019-03-17T06:39:13.123Z,101250.92
2019-03-17T06:41:42.998Z,101263.27
2019-03-17T06:44:12.733Z,101261.05
2019-03-17T06:46:42.520Z,101255.80
2019-03-17T06:49:12.422Z,101253.45
2019-03-17T06:51:42.282Z,101249.31
2019-03-17T06:54:13.268Z,101242.25
2019-03-17T06:56:43.142Z,101242.91
2019-03-17T06:59:12.925Z,101250.16
2019-03-17T07:01:42.883Z,101251.09
2019-03-17T07:04:12.681Z,101247.95
2019-03-17T07:06:42.596Z,101248.01
2019-03-17T07:09:13.836Z,101242.80
2019-03-17T07:11:43.642Z,101251.64
2019-03-17T07:14:13.587Z,101254.50
2019-03-17T07:16:43.491Z,101258.83
2019-03-17T07:19:13.410Z,101249.42
2019-03-17T07:21:43.381Z,101247.78
2019-03-17T07:24:13.244Z,101242.95
2019-03-17T07:26:43.163Z,101244.38
2019-03-17T07:29:13.132Z,101251.91
2019-03-17T07:31:42.998Z,101251.39
2019-03-17T07:34:14.848Z,101248.36
2019-03-17T07:36:45.873Z,101239.88
2019-03-17T07:39:15.489Z,101247.68
2019-03-17T07:41:45.222Z,101255.05
2019-03-17T07:44:15.012Z,101250.20
2019-03-17T07:46:44.723Z,101253.74
2019-03-17T07:49:14.395Z,101262.02
2019-03-17T07:51:44.160Z,101260.66
2019-03-17T07:54:13.870Z,101265.17
2019-03-17T07:56:43.730Z,101264.16
2019-03-17T07:59:13.500Z,101262.09
2019-03-17T08:01:43.511Z,101264.88
2019-03-17T08:04:13.391Z,101264.69
2019-03-17T08:06:43.266Z,101264.30
2019-03-17T08:09:13.178Z,101265.43
2019-03-17T08:11:42.924Z,101270.75
2019-03-17T08:14:12.824Z,101264.88
2019-03-17T08:16:42.705Z,101266.12
2019-03-17T08:19:12.419Z,101256.09
2019-03-17T08:21:43.367Z,101253.98
2019-03-17T08:24:13.336Z,101259.27
2019-03-17T08:26:43.200Z,101252.81
2019-03-17T08:29:14.139Z,101249.88
2019-03-17T08:31:43.945Z,101252.12
2019-03-17T08:34:13.880Z,101248.94
2019-03-17T08:36:47.103Z,101237.49
2019-03-17T08:39:16.994Z,101245.95
2019-03-17T08:41:48.249Z,101246.94
2019-03-17T08:44:18.033Z,101244.88
2019-03-17T08:46:48.773Z,101255.30
2019-03-17T08:49:18.668Z,101252.20
2019-03-17T08:51:48.523Z,101259.04
2019-03-17T08:54:19.694Z,101248.56
2019-03-17T08:56:49.580Z,101246.11
2019-03-17T08:59:19.472Z,101248.77
2019-03-17T09:01:50.533Z,101248.29
2019-03-17T09:04:20.365Z,101251.05
2019-03-17T09:06:50.378Z,101254.45
2019-03-17T09:09:20.348Z,101248.55
2019-03-17T09:11:50.112Z,101253.06
2019-03-17T09:14:20.078Z,101253.53
2019-03-17T09:16:49.953Z,101250.57
2019-03-17T09:19:19.858Z,101256.55
2019-03-17T09:21:49.587Z,101255.10
2019-03-17T09:24:19.468Z,101252.95
2019-03-17T09:26:49.178Z,101247.98
2019-03-17T09:29:18.958Z,101241.14
2019-03-17T09:31:48.833Z,101249.09
2019-03-17T09:34:18.722Z,101244.15
2019-03-17T09:36:48.384Z,101231.77
2019-03-17T09:39:19.476Z,101227.95
2019-03-17T09:41:49.313Z,101220.83
2019-03-17T09:44:19.272Z,101217.94
2019-03-17T09:46:49.229Z,101214.92
2019-03-17T09:49:19.036Z,101219.66
2019-03-17T09:51:49.955Z,101217.16
2019-03-17T09:54:19.706Z,101210.03
2019-03-17T09:56:50.930Z,101200.50
2019-03-17T09:59:20.655Z,101203.73
2019-03-17T10:01:50.288Z,101199.78
2019-03-17T10:04:20.257Z,101194.28
2019-03-17T10:06:50.124Z,101196.54
2019-03-17T10:09:21.283Z,101194.94
2019-03-17T10:11:51.183Z,101188.22
2019-03-17T10:14:20.882Z,101183.44
2019-03-17T10:16:50.743Z,101183.94
2019-03-17T10:19:20.401Z,101178.48
2019-03-17T10:21:50.213Z,101177.40
2019-03-17T10:24:19.873Z,101170.62
2019-03-17T10:26:49.661Z,101164.69
2019-03-17T10:29:19.577Z,101157.96
2019-03-17T10:31:50.822Z,101157.03
2019-03-17T10:34:20.715Z,101154.25
2019-03-17T10:36:51.681Z,101150.86
2019-03-17T10:39:21.480Z,101144.77
2019-03-17T10:41:51.388Z,101138.30
2019-03-17T10:44:21.150Z,101139.88
2019-03-17T10:46:51.027Z,101141.28
2019-03-17T10:49:20.840Z,101139.75
2019-03-17T10:51:50.684Z,101134.03
2019-03-17T10:54:20.588Z,101131.44
2019-03-17T10:56:51.522Z,101117.89
2019-03-17T10:59:21.317Z,101119.94
2019-03-17T11:01:51.029Z,101120.87
2019-03-17T11:04:20.885Z,101120.82
2019-03-17T11:06:50.791Z,101115.42
2019-03-17T11:09:25.391Z,101105.77
2019-03-17T11:11:52.360Z,101105.94
2019-03-17T11:14:22.158Z,101094.11
2019-03-17T11:16:51.912Z,101107.52
2019-03-17T11:19:21.601Z,101094.27
2019-03-17T11:21:51.389Z,101087.63
2019-03-17T11:24:21.374Z,101085.08
2019-03-17T11:26:51.144Z,101079.30
2019-03-17T11:29:21.045Z,101074.27
2019-03-17T11:31:51.033Z,101077.42
2019-03-17T11:34:20.919Z,101073.23
2019-03-17T11:36:50.917Z,101068.66
2019-03-17T11:39:20.745Z,101066.57
2019-03-17T11:41:50.649Z,101062.00
2019-03-17T11:44:20.537Z,101062.56
2019-03-17T11:46:50.391Z,101061.47
2019-03-17T11:49:20.065Z,101050.97
2019-03-17T11:51:50.005Z,101056.81
2019-03-17T11:54:20.021Z,101054.27
2019-03-17T11:56:49.816Z,101049.07
2019-03-17T11:59:19.654Z,101050.42
2019-03-17T12:01:49.704Z,101056.54
2019-03-17T12:04:19.484Z,101051.39
2019-03-17T12:06:49.400Z,101045.45
2019-03-17T12:09:28.573Z,101043.97
2019-03-17T12:11:50.955Z,101041.40
2019-03-17T12:14:20.792Z,101032.86
2019-03-17T12:16:51.950Z,101037.02
2019-03-17T12:19:21.828Z,101034.65
2019-03-17T12:21:51.751Z,101034.06
2019-03-17T12:24:21.763Z,101029.10
2019-03-17T12:26:51.592Z,101030.17
2019-03-17T12:29:21.495Z,101027.22
2019-03-17T12:31:52.575Z,101029.59
2019-03-17T12:34:28.057Z,101026.01
2019-03-17T12:36:53.818Z,101030.08
2019-03-17T12:39:23.674Z,101023.44
2019-03-17T12:41:53.348Z,101023.61
2019-03-17T12:44:23.156Z,101018.80
2019-03-17T12:46:53.049Z,101012.34
2019-03-17T12:49:22.906Z,101018.50
2019-03-17T12:51:52.913Z,101005.22
2019-03-17T12:54:22.781Z,101010.80
2019-03-17T12:56:52.654Z,101002.47
2019-03-17T12:59:22.688Z,100999.34
2019-03-17T13:01:52.505Z,101000.53
2019-03-17T13:04:22.445Z,100995.14
2019-03-17T13:06:52.194Z,100993.32
2019-03-17T13:09:22.042Z,100985.50
2019-03-17T13:11:53.079Z,100987.27
2019-03-17T13:14:22.888Z,100978.00
2019-03-17T13:16:52.478Z,100984.64
2019-03-17T13:19:22.925Z,100982.16
2019-03-17T13:21:52.921Z,100984.27
2019-03-17T13:24:22.746Z,100981.27
2019-03-17T13:26:52.668Z,100966.42
2019-03-17T13:29:22.570Z,100966.42
2019-03-17T13:31:52.251Z,100972.25
2019-03-17T13:34:22.049Z,100972.25
2019-03-17T13:36:51.933Z,100973.52
2019-03-17T13:39:22.978Z,100977.62
2019-03-17T13:41:52.892Z,100976.61
2019-03-17T13:44:22.709Z,100979.27
2019-03-17T13:46:52.815Z,100979.38
2019-03-17T13:49:22.966Z,100982.53
2019-03-17T13:51:52.871Z,100982.53
2019-03-17T13:54:24.035Z,100982.07
2019-03-17T13:56:53.906Z,100978.80
2019-03-17T13:59:23.822Z,100973.84
2019-03-17T14:01:53.587Z,100975.27
2019-03-17T14:04:23.352Z,100966.84
2019-03-17T14:06:53.302Z,100976.14
2019-03-17T14:09:23.161Z,100981.44
2019-03-17T14:11:53.019Z,100970.31
2019-03-17T14:14:22.930Z,100984.02
2019-03-17T14:16:52.751Z,100985.04
2019-03-17T14:19:22.527Z,100982.56
2019-03-17T14:21:52.288Z,100984.20
2019-03-17T14:24:22.175Z,100985.06
2019-03-17T14:26:51.935Z,100979.16
2019-03-17T14:29:21.706Z,100979.11
2019-03-17T14:31:51.648Z,100978.28
2019-03-17T14:34:21.514Z,100981.03
2019-03-17T14:36:51.461Z,100976.67
2019-03-17T14:39:21.294Z,100972.64
2019-03-17T14:41:51.260Z,100981.76
2019-03-17T14:44:21.122Z,100972.45
2019-03-17T14:46:51.040Z,100984.03
2019-03-17T14:49:21.002Z,100986.92
2019-03-17T14:51:50.874Z,100984.09
2019-03-17T14:54:20.788Z,100977.62
2019-03-17T14:56:50.857Z,100974.69
2019-03-17T14:59:20.591Z,100976.77
2019-03-17T15:01:50.425Z,100973.24
2019-03-17T15:04:21.445Z,100984.20
2019-03-17T15:06:51.110Z,100982.69
2019-03-17T15:09:20.884Z,100989.24
2019-03-17T15:11:50.692Z,100984.00
2019-03-17T15:14:20.421Z,100994.69
2019-03-17T15:16:50.246Z,100993.16
2019-03-17T15:19:21.185Z,101000.47
2019-03-17T15:21:50.985Z,100991.56
2019-03-17T15:24:20.696Z,100994.76
2019-03-17T15:26:50.530Z,100991.42
2019-03-17T15:29:21.689Z,100991.52
2019-03-17T15:31:51.633Z,100996.03
2019-03-17T15:34:21.500Z,100997.88
2019-03-17T15:36:51.090Z,100998.12
2019-03-17T15:39:20.961Z,101004.92
2019-03-17T15:41:50.843Z,101014.34
2019-03-17T15:44:20.915Z,101009.11
2019-03-17T15:46:52.028Z,101009.33
2019-03-17T15:49:21.899Z,101001.53
2019-03-17T15:51:51.613Z,101005.70
2019-03-17T15:54:21.743Z,101018.16
2019-03-17T15:56:51.457Z,101015.14
2019-03-17T15:59:21.243Z,101020.27
2019-03-17T16:01:51.105Z,101012.94
2019-03-17T16:04:20.791Z,101020.36
2019-03-17T16:06:50.704Z,101022.03
2019-03-17T16:09:20.467Z,101021.66
2019-03-17T16:11:50.128Z,101027.39
2019-03-17T16:14:19.941Z,101029.38
2019-03-17T16:16:49.723Z,101023.13
2019-03-17T16:19:19.474Z,101021.26
2019-03-17T16:21:49.181Z,101025.48
2019-03-17T16:24:19.146Z,101029.44
2019-03-17T16:26:49.212Z,101023.33
2019-03-17T16:29:18.943Z,101031.91
2019-03-17T16:31:48.795Z,101024.11
2019-03-17T16:34:18.833Z,101028.86
2019-03-17T16:36:48.489Z,101033.91
2019-03-17T16:39:18.369Z,101033.45
2019-03-17T16:41:48.217Z,101038.13
2019-03-17T16:44:18.257Z,101044.23
2019-03-17T16:46:48.121Z,101043.88
2019-03-17T16:49:17.865Z,101041.14
2019-03-17T16:51:47.905Z,101034.14
2019-03-17T16:54:17.862Z,101030.58
2019-03-17T16:56:47.608Z,101043.55
2019-03-17T16:59:17.428Z,101043.55
2019-03-17T17:01:47.300Z,101049.61
2019-03-17T17:04:17.088Z,101036.63
2019-03-17T17:06:47.114Z,101043.16
2019-03-17T17:09:16.938Z,101044.71
2019-03-17T17:11:55.648Z,101046.11
2019-03-17T17:14:18.159Z,101058.20
2019-03-17T17:16:48.106Z,101054.18
2019-03-17T17:19:17.890Z,101063.16
2019-03-17T17:21:47.870Z,101055.51
2019-03-17T17:24:17.687Z,101050.49
2019-03-17T17:26:47.859Z,101057.75
2019-03-17T17:29:18.089Z,101049.72
2019-03-17T17:31:47.850Z,101058.28
2019-03-17T17:34:17.673Z,101049.51
2019-03-17T17:36:47.633Z,101052.88
2019-03-17T17:39:17.582Z,101050.92
2019-03-17T17:41:47.350Z,101043.70
2019-03-17T17:44:17.176Z,101048.29
2019-03-17T17:46:47.264Z,101053.52
2019-03-17T17:49:17.183Z,101055.27
2019-03-17T17:51:47.008Z,101054.84
2019-03-17T17:54:16.789Z,101061.75
2019-03-17T17:56:46.559Z,101053.77
2019-03-17T17:59:16.457Z,101059.93
2019-03-17T18:01:46.322Z,101054.47
2019-03-17T18:04:16.248Z,101072.48
2019-03-17T18:06:46.015Z,101062.84
2019-03-17T18:09:16.041Z,101061.02
2019-03-17T18:11:45.976Z,101062.84
2019-03-17T18:14:15.944Z,101057.86
2019-03-17T18:16:46.054Z,101054.53
2019-03-17T18:19:15.788Z,101061.02
2019-03-17T18:21:45.821Z,101061.69
2019-03-17T18:24:15.880Z,101062.53
2019-03-17T18:26:45.864Z,101065.02
2019-03-17T18:29:16.995Z,101060.03
2019-03-17T18:31:47.034Z,101058.70
2019-03-17T18:34:16.969Z,101066.98
2019-03-17T18:36:46.774Z,101055.94
2019-03-17T18:39:17.920Z,101051.47
2019-03-17T18:41:47.726Z,101058.06
2019-03-17T18:44:17.617Z,101064.12
2019-03-17T18:46:47.573Z,101066.92
2019-03-17T18:49:17.438Z,101056.73
2019-03-17T18:51:47.368Z,101056.87
2019-03-17T18:54:17.362Z,101056.41
2019-03-17T18:56:47.206Z,101056.03
2019-03-17T18:59:18.021Z,101048.23
2019-03-17T19:01:48.223Z,101049.99
2019-03-17T19:04:19.458Z,101051.49
2019-03-17T19:06:49.327Z,101057.25
2019-03-17T19:09:20.484Z,101049.20
2019-03-17T19:11:50.387Z,101046.12
2019-03-17T19:14:20.343Z,101042.97
2019-03-17T19:16:50.284Z,101043.86
2019-03-17T19:19:19.961Z,101048.70
2019-03-17T19:21:49.936Z,101050.17
2019-03-17T19:24:21.352Z,101053.87
2019-03-17T19:26:51.630Z,101056.39
2019-03-17T19:29:21.444Z,101049.41
2019-03-17T19:31:51.309Z,101054.91
2019-03-17T19:34:21.108Z,101054.14
2019-03-17T19:36:51.114Z,101057.69
2019-03-17T19:39:20.953Z,101058.03
2019-03-17T19:41:51.154Z,101061.22
2019-03-17T19:44:21.325Z,101062.54
2019-03-17T19:46:51.093Z,101061.23
2019-03-17T19:49:20.884Z,101061.44
2019-03-17T19:51:50.861Z,101059.03
2019-03-17T19:54:20.732Z,101056.55
2019-03-17T19:56:50.423Z,101049.67
2019-03-17T19:59:20.407Z,101047.94
2019-03-17T20:01:50.265Z,101058.52
2019-03-17T20:04:30.138Z,101058.59
2019-03-17T20:06:51.763Z,101052.66
2019-03-17T20:09:21.726Z,101052.91
2019-03-17T20:11:51.469Z,101051.64
2019-03-17T20:14:21.606Z,101046.52
2019-03-17T20:16:51.458Z,101045.51
2019-03-17T20:19:22.683Z,101049.02
2019-03-17T20:21:52.569Z,101037.01
2019-03-17T20:24:22.494Z,101036.53
2019-03-17T20:26:52.618Z,101041.84
2019-03-17T20:29:22.974Z,101034.55
2019-03-17T20:31:52.963Z,101035.05
2019-03-17T20:34:22.902Z,101038.92
2019-03-17T20:36:53.943Z,101033.03
2019-03-17T20:39:23.901Z,101032.62
2019-03-17T20:41:55.097Z,101042.50
2019-03-17T20:44:24.794Z,101045.77
2019-03-17T20:46:54.618Z,101038.79
2019-03-17T20:49:24.579Z,101039.07
2019-03-17T20:51:54.428Z,101042.55
2019-03-17T20:54:24.489Z,101035.07
2019-03-17T20:56:54.582Z,101033.56
2019-03-17T20:59:24.505Z,101036.73
2019-03-17T21:01:54.457Z,101036.76
2019-03-17T21:04:24.358Z,101046.77
2019-03-17T21:06:54.063Z,101046.66
2019-03-17T21:09:24.794Z,101045.71
2019-03-17T21:11:54.600Z,101038.30
2019-03-17T21:14:24.842Z,101040.02
2019-03-17T21:16:54.514Z,101044.55
2019-03-17T21:19:24.451Z,101035.82
2019-03-17T21:21:54.634Z,101040.09
2019-03-17T21:24:24.600Z,101040.50
2019-03-17T21:26:54.484Z,101040.90
2019-03-17T21:29:24.379Z,101038.76
2019-03-17T21:31:54.304Z,101036.45
2019-03-17T21:34:24.037Z,101036.73
2019-03-17T21:36:53.953Z,101029.58
2019-03-17T21:39:23.567Z,101031.95
2019-03-17T21:41:53.376Z,101039.78
2019-03-17T21:44:23.137Z,101033.30
2019-03-17T21:46:53.000Z,101030.20
2019-03-17T21:49:22.717Z,101036.05
2019-03-17T21:51:52.359Z,101031.33
2019-03-17T21:54:22.273Z,101035.89
2019-03-17T21:56:51.961Z,101035.95
2019-03-17T21:59:21.942Z,101039.84
2019-03-17T22:01:51.704Z,101042.98
2019-03-17T22:04:21.607Z,101033.59
2019-03-17T22:06:52.525Z,101033.69
2019-03-17T22:09:22.292Z,101031.27
2019-03-17T22:11:53.098Z,101024.46
2019-03-17T22:14:22.968Z,101020.45
2019-03-17T22:16:52.622Z,101018.16
2019-03-17T22:19:22.238Z,101020.67
2019-03-17T22:21:52.196Z,101022.39
2019-03-17T22:24:21.981Z,101025.35
2019-03-17T22:26:51.780Z,101028.78
2019-03-17T22:29:21.680Z,101023.78
2019-03-17T22:31:51.617Z,101031.23
2019-03-17T22:34:21.376Z,101033.72
2019-03-17T22:36:51.265Z,101028.64
2019-03-17T22:39:20.998Z,101027.20
2019-03-17T22:41:50.784Z,101020.98
2019-03-17T22:44:25.087Z,101020.38
2019-03-17T22:46:52.147Z,101021.89
2019-03-17T22:49:21.975Z,101026.73
2019-03-17T22:51:52.108Z,101029.98
2019-03-17T22:54:22.165Z,101043.22
2019-03-17T22:56:51.798Z,101036.96
2019-03-17T22:59:21.648Z,101038.97
2019-03-17T23:01:52.770Z,101035.98
2019-03-17T23:04:22.584Z,101037.14
2019-03-17T23:06:52.386Z,101038.80
2019-03-17T23:09:22.095Z,101038.95
2019-03-17T23:11:51.878Z,101030.99
2019-03-17T23:14:21.635Z,101032.83
2019-03-17T23:16:51.542Z,101030.70
2019-03-17T23:19:21.443Z,101035.05
2019-03-17T23:21:51.178Z,101032.64
2019-03-17T23:24:21.071Z,101032.87
2019-03-17T23:26:50.912Z,101024.36
2019-03-17T23:29:20.715Z,101025.70
2019-03-17T23:31:50.758Z,101035.93
2019-03-17T23:34:20.662Z,101034.94
2019-03-17T23:36:50.473Z,101039.91
2019-03-17T23:39:20.377Z,101038.66
2019-03-17T23:41:50.318Z,101043.64
2019-03-17T23:44:20.148Z,101033.77
2019-03-17T23:46:49.995Z,101031.43
2019-03-17T23:49:19.744Z,101027.95
2019-03-17T23:51:49.463Z,101031.16
2019-03-17T23:54:19.471Z,101026.33
2019-03-17T23:56:49.195Z,101023.02
2019-03-17T23:59:18.950Z,101012.38
